Time;durP1;ratioP1;P1;durP2;ratioP2;P2;SDS_P1;SDS_P2;PMS_P1;PMS_P2;Temp;Humidity;BMP_temperature;BMP_pressure;BME280_temperature;BME280_humidity;BME280_pressure;Samples;Min_cycle;Max_cycle;Signal;HPM_P1;HPM_P2
2022/06/03 00:03:11;;;;;;;1.57;1.47;;;20.10;53.20;;;;;;5100854;27;20572;-47
2022/06/03 00:06:14;;;;;;;1.27;1.17;;;20.10;53.30;;;;;;5111088;27;20618;-47
2022/06/03 00:09:17;;;;;;;1.50;1.40;;;20.10;53.30;;;;;;5082051;28;20523;-47
2022/06/03 00:12:21;;;;;;;2.00;1.40;;;20.10;53.20;;;;;;5103481;27;21199;-48
2022/06/03 00:15:20;;;;;;;1.50;1.40;;;20.10;53.30;;;;;;5040104;28;20583;-47
2022/06/03 00:18:33;;;;;;;1.70;1.40;;;20.10;53.30;;;;;;5092782;27;20539;-46
2022/06/03 00:21:33;;;;;;;1.50;1.40;;;20.10;53.40;;;;;;5070133;28;20948;-48
2022/06/03 00:24:48;;;;;;;1.73;1.63;;;20.10;53.50;;;;;;5051224;28;20918;-47
2022/06/03 00:27:42;;;;;;;1.70;1.60;;;20.10;53.40;;;;;;5076133;28;20585;-47
2022/06/03 00:30:46;;;;;;;1.10;1.10;;;20.10;53.50;;;;;;5075726;27;20595;-50
2022/06/03 00:33:44;;;;;;;2.00;1.77;;;20.10;53.40;;;;;;5121686;27;20513;-47
2022/06/03 00:36:47;;;;;;;1.40;1.30;;;20.10;53.50;;;;;;5066608;27;21100;-47
2022/06/03 00:39:44;;;;;;;1.60;1.50;;;20.10;53.50;;;;;;5099061;27;20875;-47
2022/06/03 00:42:51;;;;;;;1.67;1.57;;;20.10;53.50;;;;;;5121989;27;20573;-46
2022/06/03 00:45:46;;;;;;;1.73;1.57;;;20.10;53.40;;;;;;5073191;28;20536;-46
2022/06/03 00:49:09;;;;;;;1.67;1.57;;;20.10;53.50;;;;;;5100359;27;20526;-47
2022/06/03 00:52:12;;;;;;;1.63;1.53;;;20.10;53.50;;;;;;5084211;27;20597;-47
2022/06/03 00:55:24;;;;;;;1.57;1.47;;;20.10;53.50;;;;;;5078525;28;20523;-48
2022/06/03 00:58:30;;;;;;;1.70;1.60;;;20.10;53.50;;;;;;5117653;27;20533;-48
2022/06/03 01:01:19;;;;;;;1.50;1.40;;;20.10;53.50;;;;;;5086590;27;20552;-48
2022/06/03 01:04:23;;;;;;;1.60;1.50;;;20.10;53.50;;;;;;5079866;28;20585;-46
2022/06/03 01:07:13;;;;;;;1.53;1.40;;;20.10;53.40;;;;;;5061474;27;20611;-47
2022/06/03 01:10:08;;;;;;;1.40;1.30;;;20.10;53.50;;;;;;5121148;27;20522;-46
2022/06/03 01:13:12;;;;;;;1.37;1.27;;;20.10;53.50;;;;;;5119117;27;21043;-48
2022/06/03 01:15:58;;;;;;;2.40;1.93;;;20.10;53.50;;;;;;5062666;28;20545;-48
2022/06/03 01:18:50;;;;;;;1.80;1.50;;;20.10;53.60;;;;;;5080685;28;20538;-47
2022/06/03 01:21:48;;;;;;;1.60;1.50;;;20.10;53.60;;;;;;5048052;27;21073;-48
2022/06/03 01:25:05;;;;;;;2.90;2.03;;;20.10;53.50;;;;;;5099962;27;20536;-48
2022/06/03 01:28:13;;;;;;;1.40;1.30;;;20.10;53.60;;;;;;5119572;27;20537;-47
2022/06/03 01:31:14;;;;;;;1.50;1.40;;;20.10;53.50;;;;;;5071968;28;20541;-46
2022/06/03 01:34:12;;;;;;;1.50;1.40;;;20.10;53.50;;;;;;5080101;28;20509;-48
2022/06/03 01:37:11;;;;;;;1.50;1.40;;;20.10;53.50;;;;;;5088084;27;21087;-47
2022/06/03 01:40:09;;;;;;;1.43;1.33;;;20.10;53.50;;;;;;5081025;27;20574;-46
2022/06/03 01:43:22;;;;;;;1.73;1.27;;;20.10;53.50;;;;;;5078819;28;20574;-47
2022/06/03 01:46:33;;;;;;;1.30;1.20;;;20.10;53.50;;;;;;5058891;28;20551;-47
2022/06/03 01:49:45;;;;;;;1.53;1.43;;;20.10;53.50;;;;;;5081039;27;20584;-47
2022/06/03 01:52:57;;;;;;;1.50;1.40;;;20.10;53.50;;;;;;5122566;27;20562;-46
2022/06/03 01:56:16;;;;;;;1.40;1.30;;;20.10;53.30;;;;;;5072104;27;20558;-48
2022/06/03 01:59:29;;;;;;;1.40;1.30;;;20.10;53.50;;;;;;5102809;27;20547;-47
2022/06/03 02:02:50;;;;;;;1.50;1.40;;;20.10;53.50;;;;;;5041543;27;20636;-47
2022/06/03 02:06:05;;;;;;;1.33;1.23;;;20.10;53.50;;;;;;5066740;27;20608;-48
2022/06/03 02:09:13;;;;;;;1.37;1.27;;;20.00;53.30;;;;;;5080466;28;20535;-46
2022/06/03 02:12:06;;;;;;;1.67;1.57;;;20.00;53.40;;;;;;5106540;27;21210;-48
2022/06/03 02:15:18;;;;;;;2.00;1.17;;;20.00;53.30;;;;;;5092990;27;20600;-47
2022/06/03 02:18:25;;;;;;;1.30;1.20;;;20.10;53.50;;;;;;5080863;28;20531;-47
2022/06/03 02:21:33;;;;;;;1.63;1.53;;;20.00;53.40;;;;;;5070049;27;21132;-46
2022/06/03 02:24:37;;;;;;;1.87;1.77;;;20.00;53.50;;;;;;5076138;27;20555;-47
2022/06/03 02:27:48;;;;;;;1.50;1.40;;;20.00;53.30;;;;;;5081015;27;20845;-47
2022/06/03 02:30:54;;;;;;;1.40;1.30;;;20.00;53.30;;;;;;5113643;27;20548;-66
2022/06/03 02:34:08;;;;;;;1.70;1.60;;;20.00;53.40;;;;;;5142212;27;20531;-47
2022/06/03 02:37:15;;;;;;;1.60;1.50;;;20.00;53.30;;;;;;5055639;27;20984;-47
2022/06/03 02:40:46;;;;;;;1.40;1.30;;;20.00;53.40;;;;;;5079140;28;20869;-47
2022/06/03 02:44:10;;;;;;;1.70;1.60;;;20.00;53.40;;;;;;5073460;28;21056;-46
2022/06/03 02:47:19;;;;;;;1.30;1.20;;;20.00;53.90;;;;;;5105320;27;20623;-47
2022/06/03 02:50:21;;;;;;;1.67;1.57;;;20.00;53.40;;;;;;5118006;27;20945;-46
2022/06/03 02:53:25;;;;;;;1.53;1.43;;;20.00;53.50;;;;;;5100232;27;20576;-47
2022/06/03 02:56:28;;;;;;;1.33;1.23;;;20.00;53.50;;;;;;5057838;28;20567;-47
2022/06/03 02:59:42;;;;;;;1.37;1.20;;;20.00;53.50;;;;;;5108625;27;20542;-47
2022/06/03 03:02:48;;;;;;;1.27;1.17;;;20.00;53.50;;;;;;5080238;28;20570;-46
2022/06/03 03:06:07;;;;;;;1.80;1.70;;;20.00;53.60;;;;;;5104629;27;20614;-46
2022/06/03 03:09:16;;;;;;;1.40;1.30;;;20.00;53.50;;;;;;5111039;27;20569;-46
2022/06/03 03:12:39;;;;;;;1.40;1.30;;;20.00;53.50;;;;;;5063252;27;20651;-46
2022/06/03 03:15:54;;;;;;;1.30;1.20;;;19.90;53.50;;;;;;5096307;27;20556;-47
2022/06/03 03:19:34;;;;;;;1.60;1.50;;;19.90;53.50;;;;;;5081369;28;20553;-47
2022/06/03 03:22:45;;;;;;;1.47;1.37;;;19.90;53.40;;;;;;5059015;27;20575;-47
2022/06/03 03:25:56;;;;;;;2.40;1.73;;;19.90;53.50;;;;;;5074688;27;20950;-47
2022/06/03 03:28:58;;;;;;;2.60;1.70;;;19.90;53.60;;;;;;5099969;27;20551;-44
2022/06/03 03:31:57;;;;;;;1.70;1.43;;;19.90;53.50;;;;;;5051852;27;20884;-46
2022/06/03 03:35:12;;;;;;;1.50;1.40;;;19.90;53.50;;;;;;5101093;27;21044;-47
2022/06/03 03:38:30;;;;;;;1.13;1.10;;;19.90;53.50;;;;;;5076045;27;20862;-48
2022/06/03 03:41:36;;;;;;;1.80;1.70;;;19.90;53.50;;;;;;5079446;27;20959;-46
2022/06/03 03:44:52;;;;;;;1.30;1.20;;;19.90;53.50;;;;;;5118735;27;20932;-47
2022/06/03 03:48:17;;;;;;;1.43;1.33;;;19.90;53.50;;;;;;5080328;28;21073;-47
2022/06/03 03:51:11;;;;;;;1.73;1.33;;;19.90;53.50;;;;;;5069987;27;20879;-46
2022/06/03 03:54:29;;;;;;;1.33;1.27;;;19.90;53.50;;;;;;5070826;27;20586;-47
2022/06/03 03:57:44;;;;;;;1.47;1.37;;;19.90;53.50;;;;;;4961726;28;20612;-48
2022/06/03 04:01:12;;;;;;;1.30;1.20;;;19.80;53.50;;;;;;5076303;28;20682;-48
2022/06/03 04:04:34;;;;;;;1.50;1.40;;;19.90;53.50;;;;;;5112817;27;20541;-48
2022/06/03 04:07:53;;;;;;;1.70;1.60;;;19.80;53.50;;;;;;5064964;27;20556;-46
2022/06/03 04:11:18;;;;;;;1.50;1.40;;;19.80;53.40;;;;;;5076017;28;20658;-47
2022/06/03 04:14:28;;;;;;;1.60;1.50;;;19.80;53.60;;;;;;5111386;27;20530;-45
2022/06/03 04:17:38;;;;;;;1.40;1.30;;;19.80;53.50;;;;;;5061205;27;21079;-47
2022/06/03 04:20:53;;;;;;;1.40;1.30;;;19.80;53.50;;;;;;5094443;27;20532;-46
2022/06/03 04:24:28;;;;;;;1.47;1.30;;;19.80;53.50;;;;;;5109864;27;20619;-47
2022/06/03 04:27:58;;;;;;;1.50;1.40;;;19.80;53.50;;;;;;5063874;27;20544;-48
2022/06/03 04:31:13;;;;;;;1.57;1.47;;;19.80;53.60;;;;;;5110685;27;20902;-46
2022/06/03 04:34:24;;;;;;;1.20;1.10;;;19.80;53.50;;;;;;5121297;27;20538;-46
2022/06/03 04:37:45;;;;;;;1.80;1.40;;;19.80;53.60;;;;;;5056405;27;20550;-46
2022/06/03 04:41:05;;;;;;;1.40;1.30;;;19.80;53.50;;;;;;5072534;28;20890;-47
2022/06/03 04:44:33;;;;;;;1.50;1.40;;;19.80;53.70;;;;;;5112109;27;20534;-47
2022/06/03 04:47:48;;;;;;;1.40;1.30;;;19.80;53.70;;;;;;5062474;27;20556;-47
2022/06/03 04:51:13;;;;;;;1.20;1.10;;;19.80;53.70;;;;;;5107435;27;20537;-48
2022/06/03 04:54:27;;;;;;;1.37;1.27;;;19.80;53.70;;;;;;5127221;27;20583;-47
2022/06/03 04:57:50;;;;;;;1.50;1.40;;;19.80;53.70;;;;;;5057466;27;20599;-46
2022/06/03 05:01:17;;;;;;;1.43;1.33;;;19.80;53.80;;;;;;5084631;27;20667;-48
2022/06/03 05:04:32;;;;;;;1.43;1.33;;;19.80;53.90;;;;;;5140260;27;20572;-48
2022/06/03 05:08:02;;;;;;;1.23;1.13;;;19.80;53.80;;;;;;5071020;27;20709;-47
2022/06/03 05:11:19;;;;;;;1.37;1.27;;;19.70;53.80;;;;;;5073899;28;20545;-47
2022/06/03 05:14:42;;;;;;;1.47;1.37;;;19.80;53.80;;;;;;5134388;27;21019;-48
2022/06/03 05:18:09;;;;;;;1.60;1.50;;;19.80;53.90;;;;;;5121919;27;20602;-46
2022/06/03 05:21:27;;;;;;;1.57;1.47;;;19.80;53.80;;;;;;5065358;27;20597;-46
2022/06/03 05:24:48;;;;;;;1.53;1.43;;;19.80;54.00;;;;;;5062067;28;20534;-47
2022/06/03 05:28:03;;;;;;;1.83;1.73;;;19.80;54.00;;;;;;5142048;27;20552;-46
2022/06/03 05:31:18;;;;;;;2.27;1.50;;;19.80;54.00;;;;;;5080403;27;20588;-46
2022/06/03 05:34:36;;;;;;;1.30;1.20;;;19.80;54.00;;;;;;5101433;27;21238;-46
2022/06/03 05:37:59;;;;;;;1.37;1.27;;;19.80;54.00;;;;;;5052035;27;20554;-47
2022/06/03 05:40:56;;;;;;;2.10;2.00;;;19.80;53.90;;;;;;5074484;27;20540;-46
2022/06/03 05:43:50;;;;;;;1.50;1.40;;;19.80;54.00;;;;;;5079765;28;20588;-46
2022/06/03 05:46:45;;;;;;;1.70;1.60;;;19.80;53.60;;;;;;5080960;27;21408;-47
2022/06/03 05:49:39;;;;;;;1.37;1.27;;;19.80;53.20;;;;;;5080495;28;20561;-46
2022/06/03 05:52:39;;;;;;;1.58;1.35;;;19.80;53.10;;;;;;5059781;27;1238076;-46
2022/06/03 05:55:30;;;;;;;1.73;1.63;;;19.80;53.30;;;;;;5110602;27;20883;-47
2022/06/03 05:58:32;;;;;;;1.53;1.43;;;19.80;53.20;;;;;;5070268;27;20550;-46
2022/06/03 06:01:39;;;;;;;1.40;1.30;;;19.80;53.30;;;;;;5068824;27;20596;-47
2022/06/03 06:04:25;;;;;;;1.87;1.77;;;19.80;53.40;;;;;;5100406;27;20518;-47
2022/06/03 06:07:26;;;;;;;1.60;1.50;;;19.80;53.40;;;;;;5036778;28;20549;-46
2022/06/03 06:10:28;;;;;;;1.60;1.50;;;19.80;53.50;;;;;;5073869;27;20613;-47
2022/06/03 06:13:23;;;;;;;1.50;1.40;;;19.80;53.50;;;;;;5080851;27;20869;-46
2022/06/03 06:16:08;;;;;;;1.90;1.50;;;19.80;53.60;;;;;;5079785;27;20960;-47
2022/06/03 06:18:57;;;;;;;1.50;1.37;;;19.80;53.60;;;;;;5120996;27;21065;-47
2022/06/03 06:22:07;;;;;;;1.50;1.40;;;19.80;53.50;;;;;;5055321;27;20573;-47
2022/06/03 06:24:58;;;;;;;2.10;1.90;;;19.80;53.40;;;;;;5079128;27;20538;-46
2022/06/03 06:28:04;;;;;;;1.70;1.60;;;19.80;53.10;;;;;;5113934;27;20549;-47
2022/06/03 06:31:22;;;;;;;1.77;1.60;;;19.80;53.20;;;;;;5053009;28;20546;-46
2022/06/03 06:34:33;;;;;;;1.67;1.58;;;19.80;53.20;;;;;;5098893;27;20454;-45
2022/06/03 06:37:49;;;;;;;1.60;1.50;;;19.80;53.50;;;;;;5061085;27;20545;-47
2022/06/03 06:40:43;;;;;;;2.00;1.80;;;19.80;53.30;;;;;;5106765;27;20548;-46
2022/06/03 06:43:38;;;;;;;1.83;1.70;;;19.80;53.20;;;;;;5090643;27;20931;-46
2022/06/03 06:46:29;;;;;;;1.77;1.67;;;19.80;53.20;;;;;;5087000;27;21151;-47
2022/06/03 06:49:23;;;;;;;2.17;1.70;;;19.80;53.30;;;;;;5061733;28;20632;-46
2022/06/03 06:52:29;;;;;;;1.60;1.50;;;19.80;53.00;;;;;;5038557;27;20557;-46
2022/06/03 06:55:17;;;;;;;2.83;1.70;;;19.80;53.10;;;;;;5073318;27;20522;-45
2022/06/03 06:58:03;;;;;;;1.80;1.70;;;19.80;53.10;;;;;;5084263;27;20675;-46
2022/06/03 07:00:46;;;;;;;2.90;1.70;;;19.80;53.10;;;;;;5071743;27;20605;-46
2022/06/03 07:03:49;;;;;;;1.43;1.33;;;19.80;53.00;;;;;;5081266;28;20568;-47
2022/06/03 07:06:41;;;;;;;1.73;1.53;;;19.80;53.20;;;;;;5108146;27;20594;-47
2022/06/03 07:09:38;;;;;;;1.40;1.30;;;19.80;53.30;;;;;;5140493;27;20936;-46
2022/06/03 07:12:29;;;;;;;1.50;1.40;;;19.80;53.40;;;;;;5076342;27;20570;-46
2022/06/03 07:15:39;;;;;;;1.70;1.40;;;19.80;53.50;;;;;;5113675;27;20895;-46
2022/06/03 07:21:40;;;;;;;1.70;1.60;;;20.00;52.90;;;;;;5084168;27;20555;-46
2022/06/03 07:24:33;;;;;;;1.57;1.43;;;19.90;52.90;;;;;;5099415;27;20536;-46
2022/06/03 07:27:21;;;;;;;1.30;1.20;;;19.90;53.00;;;;;;5079366;27;20576;-46
2022/06/03 07:30:08;;;;;;;1.33;1.23;;;19.90;53.30;;;;;;5090374;27;20534;-46
2022/06/03 07:32:53;;;;;;;2.50;1.27;;;19.90;53.40;;;;;;5140302;27;20934;-45
2022/06/03 07:35:43;;;;;;;1.47;1.37;;;19.80;53.40;;;;;;5072921;28;20559;-46
2022/06/03 07:38:30;;;;;;;1.80;1.70;;;19.80;53.50;;;;;;5093568;27;21187;-47
2022/06/03 07:41:18;;;;;;;1.50;1.20;;;19.80;53.60;;;;;;5110715;27;20647;-45
2022/06/03 07:44:08;;;;;;;1.10;1.10;;;19.80;53.60;;;;;;5114025;27;20559;-46
2022/06/03 07:46:53;;;;;;;2.53;1.30;;;19.80;53.60;;;;;;5064611;27;20618;-46
2022/06/03 07:49:37;;;;;;;1.73;1.40;;;19.80;53.70;;;;;;5080427;27;20520;-46
2022/06/03 07:52:27;;;;;;;1.37;1.27;;;19.80;53.70;;;;;;5059631;27;21227;-46
2022/06/03 07:55:13;;;;;;;1.50;1.40;;;19.80;53.80;;;;;;5074477;28;20589;-46
2022/06/03 07:57:58;;;;;;;1.37;1.27;;;19.80;53.90;;;;;;5075522;28;20533;-47
2022/06/03 08:00:43;;;;;;;1.70;1.60;;;19.80;53.80;;;;;;5067848;28;20608;-45
2022/06/03 08:03:33;;;;;;;1.50;1.40;;;19.80;53.80;;;;;;5122540;27;20580;-47
2022/06/03 08:06:14;;;;;;;1.50;1.40;;;19.80;53.80;;;;;;5067532;27;20563;-46
2022/06/03 08:11:54;;;;;;;1.50;1.40;;;19.80;54.00;;;;;;5050196;27;20557;-47
2022/06/03 08:14:36;;;;;;;2.00;1.90;;;19.80;53.90;;;;;;5070600;28;20554;-45
2022/06/03 08:17:19;;;;;;;1.50;1.40;;;19.80;53.90;;;;;;5063790;27;20546;-45
2022/06/03 08:20:00;;;;;;;1.57;1.47;;;19.80;54.00;;;;;;5079488;27;20581;-46
2022/06/03 08:22:44;;;;;;;1.90;1.20;;;19.80;53.90;;;;;;5108498;27;20530;-47
2022/06/03 08:25:28;;;;;;;4.20;1.37;;;19.80;53.90;;;;;;5108674;27;20565;-46
2022/06/03 08:28:13;;;;;;;1.70;1.60;;;19.80;53.90;;;;;;5112721;27;21090;-46
2022/06/03 08:30:56;;;;;;;1.30;1.20;;;19.80;54.00;;;;;;5075342;27;21057;-46
2022/06/03 08:33:42;;;;;;;1.53;1.40;;;19.80;54.00;;;;;;5080962;27;20543;-46
2022/06/03 08:36:35;;;;;;;1.63;1.53;;;19.80;54.00;;;;;;5055402;28;20582;-44
2022/06/03 08:39:20;;;;;;;1.43;1.33;;;19.80;54.00;;;;;;5060399;28;20532;-46
2022/06/03 08:42:10;;;;;;;1.60;1.50;;;19.80;54.00;;;;;;5048700;27;20599;-45
2022/06/03 08:45:15;;;;;;;1.83;1.73;;;19.80;54.00;;;;;;5086308;27;20926;-45
2022/06/03 08:47:58;;;;;;;1.00;1.00;;;19.80;54.00;;;;;;5071125;28;20942;-46
2022/06/03 08:50:44;;;;;;;1.60;1.50;;;19.80;54.00;;;;;;5100958;27;20548;-47
2022/06/03 08:53:40;;;;;;;1.40;1.30;;;19.80;54.10;;;;;;5095649;27;20519;-46
2022/06/03 08:56:25;;;;;;;2.80;1.43;;;19.80;54.10;;;;;;5100893;27;20568;-45
2022/06/03 08:59:13;;;;;;;1.20;1.10;;;19.80;54.20;;;;;;5067757;28;20638;-47
2022/06/03 09:01:59;;;;;;;1.27;1.17;;;19.80;54.20;;;;;;5052193;27;21128;-46
2022/06/03 09:04:47;;;;;;;2.00;1.50;;;19.80;54.20;;;;;;5092496;27;20555;-47
2022/06/03 09:07:33;;;;;;;1.77;1.40;;;19.80;54.20;;;;;;5117696;27;20539;-46
2022/06/03 09:10:20;;;;;;;1.20;1.10;;;19.80;54.20;;;;;;5087133;27;20951;-46
2022/06/03 09:13:07;;;;;;;2.00;1.17;;;19.80;54.20;;;;;;5099209;27;20943;-46
2022/06/03 09:15:50;;;;;;;1.50;1.33;;;19.80;54.20;;;;;;5071320;28;20618;-46
2022/06/03 09:18:35;;;;;;;1.57;1.47;;;19.80;54.20;;;;;;5068016;27;21044;-45
2022/06/03 09:21:22;;;;;;;1.37;1.30;;;19.90;54.30;;;;;;5068779;28;20555;-45
2022/06/03 09:24:09;;;;;;;1.80;1.70;;;19.80;54.30;;;;;;5066342;27;20449;-46
2022/06/03 09:26:52;;;;;;;1.70;1.60;;;19.90;54.20;;;;;;5093348;27;1217850;-45
2022/06/03 09:29:34;;;;;;;1.50;1.40;;;19.90;54.00;;;;;;5124910;27;20534;-46
2022/06/03 09:32:19;;;;;;;1.60;1.50;;;19.90;54.10;;;;;;4961769;28;20563;-44
2022/06/03 09:35:07;;;;;;;2.70;1.60;;;19.90;54.10;;;;;;5080123;27;20586;-46
2022/06/03 09:37:53;;;;;;;1.70;1.33;;;19.90;54.10;;;;;;5106951;27;20542;-46
2022/06/03 09:40:36;;;;;;;1.50;1.37;;;19.90;54.10;;;;;;5117051;27;20579;-45
2022/06/03 09:43:21;;;;;;;1.60;1.33;;;19.90;54.10;;;;;;5092525;27;20532;-45
2022/06/03 09:46:05;;;;;;;1.63;1.53;;;19.90;54.10;;;;;;5070783;28;20533;-45
2022/06/03 09:48:45;;;;;;;1.47;1.37;;;19.90;54.10;;;;;;5099376;27;20601;-45
2022/06/03 09:54:26;;;;;;;1.40;1.30;;;19.90;54.20;;;;;;5120812;27;20520;-46
2022/06/03 09:57:13;;;;;;;1.23;1.13;;;19.90;54.10;;;;;;5101749;27;20615;-48
2022/06/03 09:59:57;;;;;;;1.40;1.30;;;19.90;54.20;;;;;;5061965;27;21130;-45
2022/06/03 10:02:38;;;;;;;1.43;1.10;;;19.90;54.20;;;;;;5104503;27;20599;-46
2022/06/03 10:05:20;;;;;;;1.40;1.30;;;19.90;54.10;;;;;;5075955;28;20932;-44
2022/06/03 10:08:05;;;;;;;1.50;1.40;;;19.90;54.20;;;;;;5077400;28;20552;-44
2022/06/03 10:13:44;;;;;;;1.37;1.27;;;19.90;54.10;;;;;;5072147;27;20931;-47
2022/06/03 10:16:28;;;;;;;1.70;1.60;;;19.90;54.20;;;;;;5064910;27;20598;-46
2022/06/03 10:19:07;;;;;;;1.10;1.00;;;19.90;54.10;;;;;;5141660;27;1217030;-45
2022/06/03 10:21:55;;;;;;;1.63;1.50;;;19.90;54.20;;;;;;5064311;27;20612;-46
2022/06/03 10:24:37;;;;;;;1.70;1.20;;;19.90;54.20;;;;;;5078375;28;21135;-46
2022/06/03 10:27:21;;;;;;;1.50;1.40;;;19.90;54.20;;;;;;5061257;27;20555;-45
2022/06/03 10:30:03;;;;;;;1.50;1.40;;;19.90;54.30;;;;;;5104125;27;21061;-46
2022/06/03 10:32:50;;;;;;;1.43;1.33;;;19.90;54.30;;;;;;5121819;27;20541;-45
2022/06/03 10:35:37;;;;;;;1.60;1.50;;;19.90;54.30;;;;;;5074808;27;20666;-46
2022/06/03 10:38:22;;;;;;;1.57;1.37;;;20.00;54.40;;;;;;5080561;27;20535;-45
2022/06/03 10:41:08;;;;;;;3.67;1.70;;;19.90;54.30;;;;;;5081835;27;20525;-66
2022/06/03 10:43:49;;;;;;;1.90;1.30;;;20.00;54.40;;;;;;5100656;27;20594;-46
2022/06/03 10:46:30;;;;;;;1.10;1.00;;;20.00;54.40;;;;;;5101658;27;21090;-46
2022/06/03 10:49:13;;;;;;;1.47;1.37;;;20.00;54.40;;;;;;5061722;28;20599;-46
2022/06/03 11:01:15;;;;;;;1.63;1.53;;;20.00;54.30;;;;;;5101863;27;20567;-46
2022/06/03 11:03:56;;;;;;;1.30;1.20;;;20.00;54.30;;;;;;5120832;27;21114;-44
2022/06/03 11:06:39;;;;;;;1.40;1.30;;;20.00;54.20;;;;;;5073526;27;20553;-46
2022/06/03 11:09:19;;;;;;;1.43;1.33;;;20.00;55.40;;;;;;5145709;27;20526;-44
2022/06/03 11:12:03;;;;;;;1.40;1.30;;;20.00;54.30;;;;;;5069602;27;21069;-45
2022/06/03 11:14:46;;;;;;;1.40;1.30;;;20.10;54.40;;;;;;5140147;27;21123;-46
2022/06/03 11:17:35;;;;;;;1.50;1.40;;;20.10;54.40;;;;;;5123487;27;20536;-47
2022/06/03 11:20:34;;;;;;;1.70;1.60;;;20.10;54.40;;;;;;5062694;28;20531;-45
2022/06/03 11:23:17;;;;;;;1.47;1.37;;;20.10;54.30;;;;;;5121995;27;21109;-46
2022/06/03 11:26:01;;;;;;;1.70;1.60;;;20.10;54.40;;;;;;5092148;27;21079;-45
2022/06/03 11:28:51;;;;;;;1.40;1.30;;;20.10;54.30;;;;;;5065424;28;20556;-46
2022/06/03 11:31:35;;;;;;;1.67;1.40;;;20.10;54.30;;;;;;5054071;28;20542;-45
2022/06/03 11:34:23;;;;;;;1.40;1.30;;;20.10;54.30;;;;;;5079364;28;20527;-46
2022/06/03 11:37:09;;;;;;;1.50;1.40;;;20.10;54.40;;;;;;4957975;28;20610;-47
2022/06/03 11:39:55;;;;;;;1.80;1.70;;;20.10;54.40;;;;;;5133811;27;20513;-46
2022/06/03 11:42:43;;;;;;;1.50;1.40;;;20.10;54.40;;;;;;5081419;27;20573;-46
2022/06/03 11:45:34;;;;;;;1.50;1.23;;;20.10;54.40;;;;;;5075591;28;20583;-45
2022/06/03 11:48:20;;;;;;;1.80;1.70;;;20.10;54.50;;;;;;5132638;27;20945;-46
2022/06/03 11:51:01;;;;;;;2.30;1.40;;;20.20;54.50;;;;;;5094289;27;20596;-45
2022/06/03 11:53:47;;;;;;;1.60;1.50;;;20.20;54.60;;;;;;5069495;27;21035;-45
2022/06/03 11:56:31;;;;;;;1.50;1.40;;;20.20;54.30;;;;;;5068852;27;20531;-45
2022/06/03 11:59:20;;;;;;;1.27;1.17;;;20.20;54.30;;;;;;5089566;27;20539;-45
2022/06/03 12:02:08;;;;;;;3.47;2.00;;;20.20;54.30;;;;;;5105534;27;21052;-46
2022/06/03 12:04:53;;;;;;;1.70;1.60;;;20.30;54.50;;;;;;5121633;27;20562;-45
2022/06/03 12:07:43;;;;;;;1.57;1.47;;;20.30;54.60;;;;;;5080451;28;20543;-46
2022/06/03 12:10:27;;;;;;;1.83;1.50;;;20.30;54.50;;;;;;5078442;28;20639;-45
2022/06/03 12:13:17;;;;;;;1.80;1.70;;;20.30;54.60;;;;;;5078457;28;20588;-46
2022/06/03 12:16:10;;;;;;;1.47;1.37;;;20.30;54.60;;;;;;5092864;27;20582;-45
2022/06/03 12:19:04;;;;;;;1.30;1.20;;;20.30;54.60;;;;;;5122519;27;21094;-46
2022/06/03 12:21:55;;;;;;;1.40;1.30;;;20.20;54.60;;;;;;5093484;27;20540;-46
2022/06/03 12:24:48;;;;;;;1.90;1.77;;;20.30;54.70;;;;;;5121710;27;20553;-46
2022/06/03 12:27:31;;;;;;;2.40;1.30;;;20.30;54.80;;;;;;5123209;27;20583;-45
2022/06/03 12:30:38;;;;;;;1.23;1.13;;;20.30;54.70;;;;;;5060266;27;20564;-45
2022/06/03 12:33:28;;;;;;;1.60;1.50;;;20.30;54.80;;;;;;5081782;27;21156;-45
2022/06/03 12:36:35;;;;;;;2.13;1.60;;;20.30;54.80;;;;;;5112189;27;20539;-45
2022/06/03 12:39:29;;;;;;;1.60;1.50;;;20.30;54.80;;;;;;5080243;27;20625;-44
2022/06/03 12:42:28;;;;;;;3.43;1.60;;;20.30;54.80;;;;;;5048564;27;20582;-46
2022/06/03 12:45:34;;;;;;;1.50;1.40;;;20.40;54.80;;;;;;5067769;27;20516;-45
2022/06/03 12:48:46;;;;;;;1.70;1.60;;;20.40;54.90;;;;;;5081882;27;20944;-46
2022/06/03 12:51:29;;;;;;;1.30;1.20;;;20.40;54.90;;;;;;5069879;27;20598;-46
2022/06/03 12:54:16;;;;;;;1.63;1.30;;;20.40;54.90;;;;;;5103560;27;21126;-45
2022/06/03 12:57:06;;;;;;;1.40;1.30;;;20.40;54.90;;;;;;5072674;27;21067;-46
2022/06/03 12:59:52;;;;;;;1.30;1.20;;;20.40;54.90;;;;;;5064434;28;20532;-44
2022/06/03 13:02:37;;;;;;;1.40;1.30;;;20.40;54.90;;;;;;5082245;28;20507;-47
2022/06/03 13:05:37;;;;;;;1.50;1.40;;;20.40;55.00;;;;;;5098259;27;20580;-45
2022/06/03 13:11:46;;;;;;;1.60;1.50;;;20.40;55.00;;;;;;5086310;27;20602;-66
2022/06/03 13:14:32;;;;;;;1.40;1.30;;;20.50;55.00;;;;;;5121069;27;20533;-47
2022/06/03 13:17:51;;;;;;;1.40;1.30;;;20.50;55.10;;;;;;5045053;27;21139;-45
2022/06/03 13:20:40;;;;;;;1.60;1.50;;;20.50;55.10;;;;;;5118738;27;20538;-46
2022/06/03 13:23:33;;;;;;;1.93;1.60;;;20.50;55.10;;;;;;5084002;27;20927;-45
2022/06/03 13:27:06;;;;;;;1.40;1.30;;;20.50;55.10;;;;;;5070334;27;20891;-46
2022/06/03 13:30:15;;;;;;;1.40;1.30;;;20.50;55.10;;;;;;5063278;28;20578;-46
2022/06/03 13:33:13;;;;;;;3.00;1.50;;;20.60;55.10;;;;;;5122730;27;20632;-47
2022/06/03 13:36:03;;;;;;;1.70;1.30;;;20.60;55.20;;;;;;5096685;27;20627;-47
2022/06/03 13:38:47;;;;;;;1.80;1.70;;;20.60;55.10;;;;;;5081932;28;20529;-47
2022/06/03 13:44:46;;;;;;;1.37;1.27;;;20.60;55.10;;;;;;5115802;27;20992;-47
2022/06/03 13:47:30;;;;;;;1.30;1.20;;;20.60;55.10;;;;;;5123113;27;20505;-47
2022/06/03 13:50:25;;;;;;;1.60;1.50;;;20.60;55.10;;;;;;5080730;28;20515;-46
2022/06/03 13:53:07;;;;;;;1.47;1.37;;;20.60;55.10;;;;;;5102003;27;20520;-46
2022/06/03 13:55:53;;;;;;;1.40;1.30;;;20.60;55.10;;;;;;5074208;28;20561;-46
2022/06/03 13:58:36;;;;;;;2.07;1.47;;;20.60;55.10;;;;;;5115007;27;20542;-46
2022/06/03 14:01:26;;;;;;;1.67;1.57;;;20.70;55.20;;;;;;5071085;27;20599;-46
2022/06/03 14:04:17;;;;;;;1.17;1.07;;;20.70;55.10;;;;;;5101518;27;20947;-47
2022/06/03 14:07:01;;;;;;;1.40;1.30;;;20.70;55.20;;;;;;5123964;27;20593;-47
2022/06/03 14:09:50;;;;;;;1.30;1.20;;;20.70;55.20;;;;;;5081379;28;20577;-47
2022/06/03 14:12:37;;;;;;;1.20;1.10;;;20.70;55.20;;;;;;5123581;27;20511;-47
2022/06/03 14:15:24;;;;;;;1.40;1.30;;;20.70;55.20;;;;;;5114236;27;20530;-45
2022/06/03 14:18:08;;;;;;;1.97;1.60;;;20.70;55.30;;;;;;5122969;27;21023;-46
2022/06/03 14:20:52;;;;;;;1.40;1.30;;;20.80;55.30;;;;;;5102520;27;20540;-46
2022/06/03 14:23:38;;;;;;;1.80;1.70;;;20.80;55.30;;;;;;5103454;27;20583;-46
2022/06/03 14:26:24;;;;;;;1.03;0.97;;;20.80;55.30;;;;;;5069478;27;20541;-46
2022/06/03 14:29:11;;;;;;;1.20;1.10;;;20.80;55.30;;;;;;5069788;27;20599;-46
2022/06/03 14:32:00;;;;;;;1.40;1.30;;;20.80;55.30;;;;;;5055832;27;20538;-46
2022/06/03 14:34:43;;;;;;;1.77;1.43;;;20.80;55.30;;;;;;5121968;27;21035;-46
2022/06/03 14:37:30;;;;;;;1.67;1.57;;;20.80;55.30;;;;;;5004067;27;20692;-46
2022/06/03 14:40:19;;;;;;;1.50;1.40;;;20.80;55.30;;;;;;5080091;28;21084;-46
2022/06/03 14:43:03;;;;;;;1.40;1.30;;;20.90;55.40;;;;;;5099309;27;20948;-47
2022/06/03 14:45:49;;;;;;;1.80;1.70;;;20.90;55.40;;;;;;5102833;27;20972;-45
2022/06/03 14:48:40;;;;;;;1.30;1.20;;;20.90;55.40;;;;;;5082666;27;20590;-45
2022/06/03 14:51:33;;;;;;;1.30;1.20;;;20.90;55.40;;;;;;5152630;27;20604;-46
2022/06/03 14:54:22;;;;;;;1.87;1.77;;;20.90;55.50;;;;;;5100838;27;20535;-46
2022/06/03 14:57:06;;;;;;;1.93;1.50;;;20.90;55.40;;;;;;5051603;27;20538;-47
2022/06/03 15:00:14;;;;;;;1.40;1.30;;;20.90;55.40;;;;;;5064558;28;20532;-47
2022/06/03 15:03:04;;;;;;;1.60;1.50;;;20.90;55.40;;;;;;5082026;27;20577;-46
2022/06/03 15:05:52;;;;;;;1.30;1.20;;;20.90;55.40;;;;;;5092163;27;20619;-47
2022/06/03 15:08:39;;;;;;;1.60;1.43;;;20.90;55.40;;;;;;5082117;27;20591;-46
2022/06/03 15:11:30;;;;;;;0.97;0.97;;;21.00;55.40;;;;;;5070231;27;20621;-46
2022/06/03 15:14:13;;;;;;;1.30;1.20;;;21.00;55.40;;;;;;5067889;28;20534;-47
2022/06/03 15:16:57;;;;;;;1.30;1.20;;;21.00;55.40;;;;;;5065946;27;20565;-46
2022/06/03 15:19:44;;;;;;;1.40;1.30;;;21.00;55.40;;;;;;5122905;27;20553;-47
2022/06/03 15:22:32;;;;;;;1.50;1.40;;;21.00;55.40;;;;;;5060489;27;20553;-46
2022/06/03 15:25:20;;;;;;;1.77;1.67;;;21.00;55.40;;;;;;5138978;27;20504;-47
2022/06/03 15:28:05;;;;;;;1.30;1.20;;;21.00;55.30;;;;;;5015826;28;20922;-44
2022/06/03 15:30:54;;;;;;;1.40;1.30;;;21.10;55.40;;;;;;5075490;27;20596;-47
2022/06/03 15:33:38;;;;;;;1.40;1.30;;;21.00;55.40;;;;;;5082386;27;21049;-46
2022/06/03 15:36:22;;;;;;;1.57;1.47;;;21.10;55.50;;;;;;4986585;28;20609;-47
2022/06/03 15:39:19;;;;;;;1.50;1.40;;;21.10;55.50;;;;;;5149611;27;20589;-47
2022/06/03 15:42:03;;;;;;;1.20;1.10;;;21.10;55.60;;;;;;5147081;27;20967;-47
2022/06/03 15:44:44;;;;;;;1.20;1.10;;;21.10;55.50;;;;;;5074458;27;20561;-47
2022/06/03 15:47:32;;;;;;;1.33;1.10;;;21.10;55.60;;;;;;5081346;27;20589;-46